createdAt,value
2022-12-05T00:01:11.467Z,28.05
2022-12-05T00:03:37.918Z,27.42
2022-12-05T00:06:05.153Z,27.70
2022-12-05T00:08:31.594Z,25.20
2022-12-05T00:10:57.967Z,28.47
2022-12-05T00:13:24.352Z,27.30
2022-12-05T00:15:50.799Z,29.42
2022-12-05T00:18:17.243Z,24.90
2022-12-05T00:20:47.894Z,25.40
2022-12-05T00:23:14.739Z,25.07
2022-12-05T00:25:42.229Z,26.60
2022-12-05T00:28:08.704Z,26.55
2022-12-05T00:30:35.281Z,27.88
2022-12-05T00:33:01.708Z,30.65
2022-12-05T00:35:28.110Z,27.07
2022-12-05T00:37:54.687Z,26.65
2022-12-05T00:40:21.094Z,25.92
2022-12-05T00:42:52.104Z,29.55
2022-12-05T00:45:18.990Z,24.23
2022-12-05T00:47:45.423Z,26.90
2022-12-05T00:50:11.993Z,29.85
2022-12-05T00:52:38.436Z,28.05
2022-12-05T00:55:05.244Z,28.33
2022-12-05T00:57:32.264Z,27.58
2022-12-05T00:59:58.983Z,26.67
2022-12-05T01:02:25.716Z,27.25
2022-12-05T01:04:52.149Z,30.50
2022-12-05T01:07:18.549Z,30.63
2022-12-05T01:09:44.941Z,30.23
2022-12-05T01:12:11.377Z,32.93
2022-12-05T01:14:37.834Z,31.98
2022-12-05T01:17:04.454Z,26.88
2022-12-05T01:19:32.487Z,26.50
2022-12-05T01:21:59.997Z,27.02
2022-12-05T01:24:28.259Z,30.80
2022-12-05T01:26:55.397Z,29.52
2022-12-05T01:29:23.439Z,28.10
2022-12-05T01:31:50.103Z,28.70
2022-12-05T01:34:18.188Z,30.63
2022-12-05T01:36:44.921Z,30.73
2022-12-05T01:39:12.363Z,30.50
2022-12-05T01:41:42.210Z,27.55
2022-12-05T01:44:28.606Z,27.10
2022-12-05T01:46:56.943Z,31.92
2022-12-05T01:49:39.693Z,31.90
2022-12-05T01:52:10.950Z,27.50
2022-12-05T01:54:38.443Z,28.38
2022-12-05T01:57:08.612Z,31.83
2022-12-05T01:59:44.399Z,27.08
2022-12-05T02:02:12.269Z,28.43
2022-12-05T02:04:50.313Z,29.10
2022-12-05T02:07:18.146Z,25.55
2022-12-05T02:09:45.686Z,27.90
2022-12-05T02:12:12.175Z,31.10
2022-12-05T02:14:52.743Z,27.60
2022-12-05T02:18:04.430Z,26.10
2022-12-05T02:20:36.915Z,29.00
2022-12-05T02:23:15.334Z,32.42
2022-12-05T02:25:50.026Z,27.95
2022-12-05T02:28:25.329Z,28.40
2022-12-05T02:31:01.181Z,28.08
2022-12-05T02:33:44.611Z,29.58
2022-12-05T02:36:27.788Z,23.67
2022-12-05T02:39:04.846Z,28.60
2022-12-05T02:41:49.980Z,28.43
2022-12-05T02:44:29.288Z,27.95
2022-12-05T02:46:57.466Z,25.38
2022-12-05T02:49:30.006Z,26.80
2022-12-05T02:51:59.760Z,27.58
2022-12-05T02:54:31.393Z,29.97
2022-12-05T02:57:00.341Z,27.45
2022-12-05T02:59:26.817Z,28.33
2022-12-05T03:01:53.392Z,27.42
2022-12-05T03:04:22.822Z,31.50
2022-12-05T03:06:54.827Z,28.70
2022-12-05T03:09:26.789Z,29.00
2022-12-05T03:12:05.273Z,26.20
2022-12-05T03:14:39.061Z,25.63
2022-12-05T03:17:11.826Z,24.13
2022-12-05T03:19:52.730Z,27.60
2022-12-05T03:22:27.640Z,24.73
2022-12-05T03:24:54.794Z,29.65
2022-12-05T03:27:21.171Z,25.67
2022-12-05T03:29:55.616Z,41.47
2022-12-05T03:33:06.591Z,32.60
2022-12-05T03:35:39.031Z,26.08
2022-12-05T03:38:13.633Z,29.00
2022-12-05T03:41:09.395Z,24.85
2022-12-05T03:43:52.822Z,25.98
2022-12-05T03:46:29.708Z,23.53
2022-12-05T03:49:33.522Z,24.92
2022-12-05T03:52:17.688Z,23.67
2022-12-05T03:54:49.413Z,27.30
2022-12-05T03:57:34.382Z,25.60
2022-12-05T04:00:09.993Z,28.30
2022-12-05T04:03:10.604Z,29.70
2022-12-05T04:05:47.223Z,25.02
2022-12-05T04:08:21.135Z,26.33
2022-12-05T04:10:51.338Z,24.35
2022-12-05T04:13:25.360Z,25.13
2022-12-05T04:16:17.940Z,26.75
2022-12-05T04:18:55.939Z,27.25
2022-12-05T04:21:38.338Z,25.50
2022-12-05T04:24:32.498Z,26.73
2022-12-05T04:27:22.871Z,23.73
2022-12-05T04:30:20.951Z,25.85
2022-12-05T04:33:15.284Z,26.60
2022-12-05T04:35:52.657Z,26.17
2022-12-05T04:38:30.686Z,26.75
2022-12-05T04:41:05.189Z,25.80
2022-12-05T04:43:35.480Z,26.70
2022-12-05T04:46:05.269Z,26.15
2022-12-05T04:48:35.239Z,23.30
2022-12-05T04:51:03.310Z,25.67
2022-12-05T04:53:31.456Z,25.60
2022-12-05T04:56:01.849Z,26.65
2022-12-05T04:58:30.202Z,26.63
2022-12-05T05:01:10.105Z,26.88
2022-12-05T05:03:56.660Z,25.23
2022-12-05T05:06:23.034Z,26.07
2022-12-05T05:08:52.224Z,21.73
2022-12-05T05:11:22.749Z,24.27
2022-12-05T05:13:49.297Z,24.55
2022-12-05T05:16:18.443Z,24.10
2022-12-05T05:18:48.687Z,28.33
2022-12-05T05:21:24.703Z,27.73
2022-12-05T05:23:51.490Z,26.70
2022-12-05T05:26:18.619Z,26.73
2022-12-05T05:28:45.802Z,27.35
2022-12-05T05:31:12.794Z,31.60
2022-12-05T05:33:39.437Z,30.85
2022-12-05T05:36:08.276Z,32.30
2022-12-05T05:38:39.629Z,33.50
2022-12-05T05:41:11.450Z,32.30
2022-12-05T05:43:39.396Z,30.30
2022-12-05T05:46:06.158Z,31.27
2022-12-05T05:48:32.688Z,32.25
2022-12-05T05:51:00.280Z,31.33
2022-12-05T05:53:26.766Z,39.28
2022-12-05T05:55:53.334Z,30.13
2022-12-05T05:58:19.707Z,31.80
2022-12-05T06:00:46.203Z,30.85
2022-12-05T06:03:12.822Z,34.35
2022-12-05T06:05:39.325Z,39.83
2022-12-05T06:08:06.016Z,35.10
2022-12-05T06:10:32.525Z,36.28
2022-12-05T06:13:00.446Z,33.30
2022-12-05T06:15:26.910Z,37.38
2022-12-05T06:17:53.356Z,35.85
2022-12-05T06:20:19.785Z,37.37
2022-12-05T06:22:46.155Z,34.67
2022-12-05T06:25:12.567Z,32.63
2022-12-05T06:27:39.132Z,39.00
2022-12-05T06:30:06.293Z,35.70
2022-12-05T06:32:32.821Z,32.07
2022-12-05T06:34:59.319Z,36.65
2022-12-05T06:37:25.728Z,36.75
2022-12-05T06:39:53.129Z,37.22
2022-12-05T06:42:19.533Z,37.17
2022-12-05T06:44:46.132Z,38.40
2022-12-05T06:47:12.589Z,32.47
2022-12-05T06:49:38.980Z,32.17
2022-12-05T06:52:05.507Z,32.95
2022-12-05T06:54:32.001Z,39.13
2022-12-05T06:56:58.443Z,36.90
2022-12-05T06:59:24.887Z,36.95
2022-12-05T07:01:51.453Z,38.30
2022-12-05T07:04:21.484Z,35.72
2022-12-05T07:06:51.447Z,34.80
2022-12-05T07:09:44.514Z,38.13
2022-12-05T07:12:15.237Z,35.55
2022-12-05T07:14:50.383Z,34.42
2022-12-05T07:17:18.833Z,41.38
2022-12-05T07:19:48.348Z,35.92
2022-12-05T07:22:16.166Z,37.50
2022-12-05T07:24:43.569Z,40.28
2022-12-05T07:27:10.157Z,39.13
2022-12-05T07:29:36.683Z,31.95
2022-12-05T07:32:03.707Z,40.53
2022-12-05T07:34:30.432Z,35.17
2022-12-05T07:36:56.985Z,38.55
2022-12-05T07:39:23.438Z,33.17
2022-12-05T07:41:50.020Z,37.15
2022-12-05T07:44:17.047Z,36.95
2022-12-05T07:46:43.498Z,35.37
2022-12-05T07:49:10.133Z,38.67
2022-12-05T07:51:36.594Z,36.28
2022-12-05T07:54:03.468Z,40.30
2022-12-05T07:56:29.969Z,32.35
2022-12-05T07:58:56.499Z,29.53
2022-12-05T08:01:28.435Z,36.75
2022-12-05T08:03:57.711Z,34.40
2022-12-05T08:06:29.188Z,33.95
2022-12-05T08:08:56.683Z,30.77
2022-12-05T08:11:26.582Z,30.37
2022-12-05T08:13:54.264Z,32.45
2022-12-05T08:16:24.257Z,30.60
2022-12-05T08:18:57.858Z,31.42
2022-12-05T08:21:25.296Z,30.77
2022-12-05T08:23:52.671Z,31.77
2022-12-05T08:26:30.989Z,31.27
2022-12-05T08:29:03.513Z,26.70
2022-12-05T08:31:32.484Z,27.17
2022-12-05T08:34:00.175Z,28.77
2022-12-05T08:36:28.786Z,37.33
2022-12-05T08:39:00.416Z,32.45
2022-12-05T08:41:29.875Z,26.98
2022-12-05T08:43:59.057Z,26.73
2022-12-05T08:46:26.041Z,26.98
2022-12-05T08:48:52.654Z,22.50
2022-12-05T08:51:19.078Z,23.73
2022-12-05T08:53:45.628Z,24.38
2022-12-05T08:56:12.592Z,22.45
2022-12-05T08:58:40.197Z,23.67
2022-12-05T09:01:10.307Z,24.60
2022-12-05T09:03:36.866Z,24.88
2022-12-05T09:06:17.048Z,27.88
2022-12-05T09:08:46.747Z,21.95
2022-12-05T09:11:23.893Z,27.25
2022-12-05T09:13:51.943Z,74.40
2022-12-05T09:16:24.944Z,23.60
2022-12-05T09:18:52.633Z,24.08
2022-12-05T09:21:22.236Z,20.30
2022-12-05T09:23:49.262Z,24.70
2022-12-05T09:26:17.998Z,22.00
2022-12-05T09:28:44.556Z,20.42
2022-12-05T09:31:17.639Z,25.60
2022-12-05T09:33:44.891Z,22.85
2022-12-05T09:36:25.383Z,24.00
2022-12-05T09:38:53.298Z,22.33
2022-12-05T09:42:05.302Z,22.70
2022-12-05T09:44:50.191Z,21.48
2022-12-05T09:47:50.464Z,21.38
2022-12-05T09:50:29.395Z,24.88
2022-12-05T09:53:18.549Z,23.03
2022-12-05T09:55:49.593Z,21.73
2022-12-05T09:58:25.516Z,19.10
2022-12-05T10:00:59.196Z,19.83
2022-12-05T10:03:34.716Z,20.38
2022-12-05T10:06:13.281Z,18.13
2022-12-05T10:08:46.669Z,17.75
2022-12-05T10:11:35.117Z,20.48
2022-12-05T10:14:21.681Z,19.48
2022-12-05T10:16:55.360Z,19.55
2022-12-05T10:19:30.354Z,16.80
2022-12-05T10:22:20.689Z,18.98
2022-12-05T10:24:54.537Z,16.00
2022-12-05T10:27:35.395Z,18.33
2022-12-05T10:30:17.164Z,17.13
2022-12-05T10:32:54.418Z,15.43
2022-12-05T10:35:32.874Z,17.45
2022-12-05T10:38:04.079Z,14.23
2022-12-05T10:40:40.621Z,15.40
2022-12-05T10:43:10.169Z,16.38
2022-12-05T10:45:43.972Z,17.67
2022-12-05T10:48:16.268Z,16.02
2022-12-05T10:50:44.410Z,14.27
2022-12-05T10:53:17.296Z,15.68
2022-12-05T10:56:06.447Z,16.48
2022-12-05T10:58:33.457Z,15.50
2022-12-05T11:01:13.931Z,15.43
2022-12-05T11:03:42.555Z,18.05
2022-12-05T11:06:24.877Z,17.55
2022-12-05T11:09:09.508Z,10.73
2022-12-05T11:11:36.286Z,10.33
2022-12-05T11:14:24.521Z,11.27
2022-12-05T11:16:56.821Z,9.90
2022-12-05T11:19:28.226Z,9.40
2022-12-05T11:21:55.279Z,24.52
2022-12-05T11:24:32.355Z,13.37
2022-12-05T11:27:01.384Z,14.85
2022-12-05T11:29:30.133Z,13.85
2022-12-05T11:31:56.584Z,11.30
2022-12-05T11:34:28.005Z,15.30
2022-12-05T11:37:04.873Z,9.70
2022-12-05T11:39:32.570Z,10.55
2022-12-05T11:42:14.499Z,13.80
2022-12-05T11:45:02.292Z,11.85
2022-12-05T11:48:06.944Z,13.30
2022-12-05T11:51:03.340Z,19.37
2022-12-05T11:53:48.753Z,15.98
2022-12-05T11:56:38.385Z,14.93
2022-12-05T11:59:35.594Z,14.73
2022-12-05T12:02:13.821Z,11.55
2022-12-05T12:04:59.103Z,10.10
2022-12-05T12:07:51.334Z,11.35
2022-12-05T12:10:29.324Z,11.70
2022-12-05T12:13:16.614Z,12.82
2022-12-05T12:16:15.640Z,11.65
2022-12-05T12:19:03.068Z,12.50
2022-12-05T12:21:51.061Z,12.00
2022-12-05T12:24:26.731Z,11.02
2022-12-05T12:26:57.286Z,12.00
2022-12-05T12:29:54.399Z,12.65
2022-12-05T12:32:39.701Z,13.83
2022-12-05T12:35:24.955Z,13.77
2022-12-05T12:38:17.376Z,10.75
2022-12-05T12:41:14.147Z,11.45
2022-12-05T12:43:55.809Z,11.68
2022-12-05T12:46:49.007Z,11.00
2022-12-05T12:49:34.201Z,13.00
2022-12-05T12:52:12.386Z,10.90
2022-12-05T12:55:05.036Z,11.23
2022-12-05T12:57:34.604Z,11.57
2022-12-05T13:00:20.348Z,12.43
2022-12-05T13:03:17.119Z,11.13
2022-12-05T13:05:48.664Z,12.43
2022-12-05T13:08:27.531Z,9.52
2022-12-05T13:10:55.727Z,13.05
2022-12-05T13:13:36.487Z,11.67
2022-12-05T13:16:07.826Z,11.68
2022-12-05T13:18:35.506Z,12.70
2022-12-05T13:21:09.994Z,14.60
2022-12-05T13:23:43.682Z,15.23
2022-12-05T13:26:12.596Z,17.07
2022-12-05T13:28:42.256Z,36.33
2022-12-05T13:31:11.373Z,15.00
2022-12-05T13:33:49.254Z,11.82
2022-12-05T13:36:39.565Z,12.23
2022-12-05T13:39:37.030Z,13.67
2022-12-05T13:42:15.996Z,12.52
2022-12-05T13:44:44.751Z,16.10
2022-12-05T13:47:28.807Z,14.50
2022-12-05T13:50:10.068Z,16.40
2022-12-05T13:52:49.373Z,16.60
2022-12-05T13:55:32.282Z,16.90
2022-12-05T13:58:20.940Z,14.32
2022-12-05T14:00:47.806Z,15.63
2022-12-05T14:03:32.751Z,18.02
2022-12-05T14:05:59.358Z,15.47
2022-12-05T14:08:31.836Z,14.93
2022-12-05T14:10:58.169Z,11.45
2022-12-05T14:13:25.408Z,13.30
2022-12-05T14:15:54.593Z,13.07
2022-12-05T14:18:48.663Z,15.13
2022-12-05T14:21:27.964Z,13.77
2022-12-05T14:24:05.884Z,20.67
2022-12-05T14:26:32.682Z,20.55
2022-12-05T14:29:06.103Z,20.83
2022-12-05T14:31:49.289Z,16.20
2022-12-05T14:34:30.948Z,13.68
2022-12-05T14:37:03.364Z,15.40
2022-12-05T14:39:39.098Z,17.60
2022-12-05T14:42:29.391Z,16.20
2022-12-05T14:44:58.548Z,17.80
2022-12-05T14:47:34.168Z,18.00
2022-12-05T14:50:38.780Z,15.57
2022-12-05T14:53:20.589Z,18.17
2022-12-05T14:55:50.933Z,17.63
2022-12-05T14:58:22.026Z,15.97
2022-12-05T15:00:58.444Z,17.63
2022-12-05T15:03:39.957Z,15.55
2022-12-05T15:06:16.038Z,14.95
2022-12-05T15:08:49.080Z,16.38
2022-12-05T15:11:31.170Z,22.47
2022-12-05T15:14:12.484Z,14.15
2022-12-05T15:16:43.648Z,15.40
2022-12-05T15:19:17.763Z,14.38
2022-12-05T15:21:51.668Z,20.23
2022-12-05T15:24:20.020Z,16.57
2022-12-05T15:26:50.225Z,23.88
2022-12-05T15:29:25.506Z,14.65
2022-12-05T15:32:02.532Z,20.20
2022-12-05T15:34:38.297Z,17.35
2022-12-05T15:37:10.647Z,18.17
2022-12-05T15:39:50.388Z,16.23
2022-12-05T15:42:16.947Z,13.32
2022-12-05T15:44:43.369Z,12.85
2022-12-05T15:47:21.037Z,15.20
2022-12-05T15:49:47.676Z,13.63
2022-12-05T15:52:25.700Z,11.65
2022-12-05T15:54:54.268Z,12.25
2022-12-05T15:57:28.414Z,12.77
2022-12-05T16:00:03.246Z,15.57
2022-12-05T16:02:41.794Z,15.57
2022-12-05T16:05:21.904Z,15.07
2022-12-05T16:07:49.947Z,17.70
2022-12-05T16:10:23.440Z,14.27
2022-12-05T16:12:53.196Z,14.43
2022-12-05T16:15:26.746Z,15.60
2022-12-05T16:17:56.458Z,16.48
2022-12-05T16:20:32.179Z,13.25
2022-12-05T16:23:02.392Z,11.90
2022-12-05T16:25:35.260Z,12.65
2022-12-05T16:28:04.028Z,12.90
2022-12-05T16:30:31.305Z,11.02
2022-12-05T16:33:04.499Z,13.55
2022-12-05T16:35:37.235Z,13.93
2022-12-05T16:38:12.978Z,12.23
2022-12-05T16:40:50.569Z,12.20
2022-12-05T16:43:27.594Z,13.05
2022-12-05T16:45:57.063Z,13.70
2022-12-05T16:48:31.704Z,11.18
2022-12-05T16:51:22.198Z,29.30
2022-12-05T16:53:51.291Z,15.47
2022-12-05T16:56:27.858Z,13.15
2022-12-05T16:58:54.386Z,10.50
2022-12-05T17:01:25.809Z,11.43
2022-12-05T17:03:53.986Z,11.60
2022-12-05T17:06:23.232Z,10.30
2022-12-05T17:08:51.510Z,11.10
2022-12-05T17:11:22.926Z,14.35
2022-12-05T17:13:50.377Z,19.13
2022-12-05T17:16:18.331Z,13.63
2022-12-05T17:18:45.435Z,14.93
2022-12-05T17:21:17.315Z,20.88
2022-12-05T17:23:47.833Z,14.05
2022-12-05T17:26:17.514Z,11.95
2022-12-05T17:28:44.212Z,11.23
2022-12-05T17:31:16.748Z,11.13
2022-12-05T17:33:44.088Z,13.23
2022-12-05T17:36:10.807Z,11.80
2022-12-05T17:38:45.954Z,11.02
2022-12-05T17:41:23.677Z,11.13
2022-12-05T17:43:51.301Z,11.47
2022-12-05T17:46:21.440Z,9.52
2022-12-05T17:48:48.872Z,10.43
2022-12-05T17:51:15.584Z,9.52
2022-12-05T17:53:44.387Z,10.15
2022-12-05T17:56:11.471Z,8.90
2022-12-05T17:58:37.968Z,11.35
2022-12-05T18:01:04.696Z,11.30
2022-12-05T18:03:31.592Z,13.60
2022-12-05T18:05:58.541Z,13.10
2022-12-05T18:08:25.204Z,13.03
2022-12-05T18:10:52.114Z,11.95
2022-12-05T18:13:19.141Z,13.77
2022-12-05T18:15:48.190Z,10.73
2022-12-05T18:18:17.842Z,11.73
2022-12-05T18:20:45.067Z,14.20
2022-12-05T18:23:11.675Z,11.25
2022-12-05T18:25:38.726Z,11.18
2022-12-05T18:28:05.334Z,8.80
2022-12-05T18:30:31.910Z,11.20
2022-12-05T18:32:58.460Z,10.27
2022-12-05T18:35:40.546Z,9.40
2022-12-05T18:38:08.753Z,9.52
2022-12-05T18:40:35.445Z,13.70
2022-12-05T18:43:02.007Z,10.77
2022-12-05T18:45:28.511Z,13.70
2022-12-05T18:48:04.529Z,17.17
2022-12-05T18:50:36.640Z,15.68
2022-12-05T18:53:03.584Z,11.13
2022-12-05T18:55:58.003Z,12.63
2022-12-05T18:58:16.535Z,9.53
2022-12-05T19:00:43.068Z,12.43
2022-12-05T19:03:09.624Z,15.15
2022-12-05T19:05:36.385Z,12.60
2022-12-05T19:08:02.901Z,13.10
2022-12-05T19:10:29.453Z,10.87
2022-12-05T19:12:57.039Z,11.18
2022-12-05T19:15:23.877Z,13.20
2022-12-05T19:17:50.414Z,13.25
2022-12-05T19:20:16.839Z,14.57
2022-12-05T19:22:43.282Z,13.70
2022-12-05T19:25:09.733Z,14.77
2022-12-05T19:27:36.202Z,27.55
2022-12-05T19:30:07.942Z,23.48
2022-12-05T19:32:40.029Z,25.63
2022-12-05T19:35:07.544Z,26.83
2022-12-05T19:37:34.319Z,25.65
2022-12-05T19:40:01.092Z,21.05
2022-12-05T19:42:29.305Z,18.88
2022-12-05T19:44:55.760Z,16.33
2022-12-05T19:47:22.498Z,12.17
2022-12-05T19:49:49.119Z,11.63
2022-12-05T19:52:17.799Z,12.88
2022-12-05T19:54:45.134Z,14.80
2022-12-05T19:57:11.955Z,11.73
2022-12-05T19:59:38.561Z,10.27
2022-12-05T20:02:05.090Z,9.15
2022-12-05T20:04:31.862Z,12.65
2022-12-05T20:06:58.354Z,12.32
2022-12-05T20:09:25.016Z,12.00
2022-12-05T20:11:55.001Z,13.00
2022-12-05T20:14:24.402Z,11.10
2022-12-05T20:16:51.918Z,9.65
2022-12-05T20:19:18.545Z,12.25
2022-12-05T20:21:45.009Z,12.77
2022-12-05T20:24:12.317Z,11.70
2022-12-05T20:26:41.288Z,13.70
2022-12-05T20:29:08.082Z,15.15
2022-12-05T20:31:36.623Z,10.88
2022-12-05T20:34:04.424Z,11.57
2022-12-05T20:36:32.658Z,10.53
2022-12-05T20:39:02.194Z,10.52
2022-12-05T20:41:29.556Z,9.43
2022-12-05T20:44:02.002Z,10.10
2022-12-05T20:46:29.252Z,12.75
2022-12-05T20:48:58.876Z,11.43
2022-12-05T20:51:28.144Z,10.23
2022-12-05T20:53:54.919Z,10.55
2022-12-05T20:56:28.213Z,10.05
2022-12-05T20:58:57.740Z,10.32
2022-12-05T21:01:26.281Z,11.57
2022-12-05T21:03:53.883Z,31.40
2022-12-05T21:06:24.664Z,17.67
2022-12-05T21:08:51.904Z,13.55
2022-12-05T21:11:18.561Z,21.33
2022-12-05T21:13:45.551Z,15.17
2022-12-05T21:16:16.254Z,9.48
2022-12-05T21:18:45.494Z,8.65
2022-12-05T21:21:14.909Z,7.97
2022-12-05T21:23:46.628Z,11.60
2022-12-05T21:26:17.484Z,9.73
2022-12-05T21:28:45.468Z,7.32
2022-12-05T21:31:17.429Z,7.45
2022-12-05T21:33:48.849Z,7.72
2022-12-05T21:36:15.891Z,6.78
2022-12-05T21:38:42.529Z,7.70
2022-12-05T21:41:12.244Z,7.18
2022-12-05T21:43:38.800Z,8.10
2022-12-05T21:46:06.085Z,11.63
2022-12-05T21:48:34.028Z,11.77
2022-12-05T21:51:01.595Z,8.70
2022-12-05T21:53:28.279Z,9.13
2022-12-05T21:56:02.482Z,9.77
2022-12-05T21:58:29.368Z,9.48
2022-12-05T22:00:56.392Z,9.43
2022-12-05T22:03:23.393Z,9.40
2022-12-05T22:05:49.895Z,9.05
2022-12-05T22:08:16.639Z,9.68
2022-12-05T22:10:43.187Z,9.82
2022-12-05T22:13:09.561Z,12.57
2022-12-05T22:15:36.209Z,8.37
2022-12-05T22:18:02.652Z,9.32
2022-12-05T22:20:29.163Z,8.50
2022-12-05T22:22:55.551Z,8.65
2022-12-05T22:25:22.083Z,9.00
2022-12-05T22:27:48.571Z,7.60
2022-12-05T22:30:15.083Z,6.53
2022-12-05T22:32:41.510Z,7.68
2022-12-05T22:35:07.999Z,6.30
2022-12-05T22:37:34.370Z,6.72
2022-12-05T22:40:01.008Z,6.40
2022-12-05T22:42:27.735Z,6.22
2022-12-05T22:44:54.276Z,6.80
2022-12-05T22:47:20.739Z,6.22
2022-12-05T22:49:47.192Z,5.78
2022-12-05T22:52:13.624Z,5.60
2022-12-05T22:54:40.252Z,6.47
2022-12-05T22:57:06.694Z,7.70
2022-12-05T22:59:33.167Z,7.03
2022-12-05T23:01:59.624Z,6.80
2022-12-05T23:04:26.351Z,7.60
2022-12-05T23:06:52.747Z,7.30
2022-12-05T23:09:20.491Z,7.13
2022-12-05T23:11:49.359Z,7.93
2022-12-05T23:14:18.815Z,18.48
2022-12-05T23:16:45.228Z,8.63
2022-12-05T23:19:11.716Z,7.80
2022-12-05T23:21:40.056Z,8.85
2022-12-05T23:24:09.787Z,9.23
2022-12-05T23:26:40.317Z,9.23
2022-12-05T23:29:07.464Z,9.27
2022-12-05T23:31:34.217Z,10.77
2022-12-05T23:34:03.541Z,9.20
2022-12-05T23:36:32.277Z,11.45
2022-12-05T23:39:00.232Z,11.68
2022-12-05T23:41:27.431Z,15.43
2022-12-05T23:43:54.240Z,14.13
2022-12-05T23:46:23.153Z,16.95
2022-12-05T23:48:50.395Z,18.30
2022-12-05T23:51:22.021Z,16.92
2022-12-05T23:53:53.811Z,16.73
2022-12-05T23:56:23.281Z,18.35
2022-12-05T23:58:49.805Z,16.98
